Time;durP1;ratioP1;P1;durP2;ratioP2;P2;SDS_P1;SDS_P2;PMS_P1;PMS_P2;Temp;Humidity;BMP_temperature;BMP_pressure;BME280_temperature;BME280_humidity;BME280_pressure;Samples;Min_cycle;Max_cycle;Signal;HPM_P1;HPM_P2
2022/01/03 00:04:24;;;;;;;10.07;7.60;;;;;;;21.58;nan;100231.94;20403110;28;100166;-63
2022/01/03 00:14:27;;;;;;;11.82;8.15;;;;;;;21.56;nan;100235.63;20403040;28;98138;-61
2022/01/03 00:24:32;;;;;;;8.98;7.00;;;;;;;21.54;nan;100227.81;20390743;28;100771;-63
2022/01/03 00:34:37;;;;;;;10.93;7.68;;;;;;;21.54;nan;100232.25;20387056;28;101073;-63
2022/01/03 00:44:37;;;;;;;9.45;7.30;;;;;;;21.50;nan;100215.03;20392203;28;101600;-63
2022/01/03 00:54:38;;;;;;;8.88;7.15;;;;;;;21.48;nan;100206.41;20408134;28;102052;-62
2022/01/03 01:04:43;;;;;;;9.85;6.78;;;;;;;21.45;nan;100215.41;20442893;28;102900;-62
2022/01/03 01:14:50;;;;;;;9.48;6.95;;;;;;;21.42;nan;100232.31;20409838;28;102860;-62
2022/01/03 01:35:53;;;;;;;8.32;6.25;;;;;;;21.38;nan;100209.78;20448885;28;102016;-61
2022/01/03 01:45:58;;;;;;;9.63;6.40;;;;;;;21.36;nan;100192.44;20385309;28;101981;-62
2022/01/03 01:55:59;;;;;;;8.77;6.63;;;;;;;21.34;nan;100189.94;20385154;28;102190;-62
2022/01/03 02:06:18;;;;;;;7.53;5.60;;;;;;;21.33;nan;100182.16;20389661;28;103822;-63
2022/01/03 02:16:19;;;;;;;6.80;5.85;;;;;;;21.31;nan;100187.53;20441567;28;101187;-62
2022/01/03 02:26:22;;;;;;;7.32;5.72;;;;;;;21.30;nan;100214.88;20380944;28;102492;-62
2022/01/03 02:36:22;;;;;;;7.33;5.80;;;;;;;21.28;nan;100185.19;20381374;28;101881;-62
2022/01/03 02:46:23;;;;;;;8.65;6.45;;;;;;;21.24;nan;100176.69;20382899;28;99823;-62
2022/01/03 02:56:23;;;;;;;6.88;5.40;;;;;;;21.26;nan;100201.09;20377771;28;102457;-62
2022/01/03 03:06:25;;;;;;;8.25;5.80;;;;;;;21.23;nan;100189.97;20388214;28;105311;-62
2022/01/03 03:16:25;;;;;;;7.15;5.55;;;;;;;21.19;nan;100170.09;20385101;28;102426;-62
2022/01/03 03:26:26;;;;;;;7.15;5.65;;;;;;;21.18;nan;100157.91;20379887;28;103344;-62
2022/01/03 03:36:27;;;;;;;6.80;5.35;;;;;;;21.19;nan;100157.78;20381725;28;102732;-62
2022/01/03 03:46:28;;;;;;;7.00;5.38;;;;;;;21.15;nan;100152.91;20379131;28;100807;-62
2022/01/03 03:56:29;;;;;;;8.35;5.65;;;;;;;21.14;nan;100162.59;20380432;28;103963;-62
2022/01/03 04:06:30;;;;;;;6.68;5.03;;;;;;;21.13;nan;100162.72;20417426;28;99678;-62
2022/01/03 04:16:33;;;;;;;6.07;5.00;;;;;;;21.11;nan;100147.88;20378183;28;102658;-62
2022/01/03 04:26:35;;;;;;;6.32;4.80;;;;;;;21.07;nan;100141.19;20380683;28;105757;-62
2022/01/03 04:36:36;;;;;;;5.35;4.85;;;;;;;21.06;nan;100157.13;20380666;28;98874;-62
2022/01/03 04:46:37;;;;;;;5.82;4.85;;;;;;;21.05;nan;100142.28;20373606;28;99843;-62
2022/01/03 04:56:39;;;;;;;6.57;5.00;;;;;;;21.03;nan;100142.41;20373556;28;99234;-61
2022/01/03 05:06:40;;;;;;;5.88;4.80;;;;;;;21.00;nan;100137.38;20415331;28;101325;-61
2022/01/03 05:16:41;;;;;;;6.55;5.13;;;;;;;21.18;nan;100134.19;20417547;28;98316;-62
2022/01/03 05:26:42;;;;;;;8.77;4.72;;;;;;;21.36;nan;100106.38;20387150;28;101864;-61
2022/01/03 05:36:42;;;;;;;7.10;4.45;;;;;;;21.53;nan;100093.59;20398891;28;101054;-62
2022/01/03 05:46:43;;;;;;;15.38;4.40;;;;;;;21.62;nan;100092.88;20394842;28;102669;-62
2022/01/03 05:56:44;;;;;;;6.37;4.40;;;;;;;21.68;nan;100092.34;20396175;28;102596;-60
2022/01/03 06:06:53;;;;;;;9.43;5.22;;;;;;;21.72;nan;100103.47;20403309;28;98305;-61
2022/01/03 06:16:54;;;;;;;21.45;5.35;;;;;;;21.72;nan;100109.56;20407562;28;100130;-62
2022/01/03 06:26:55;;;;;;;10.38;5.95;;;;;;;21.68;nan;100109.94;20413178;28;98495;-62
2022/01/03 06:36:55;;;;;;;10.32;5.57;;;;;;;21.68;nan;100096.75;20415099;28;101812;-61
2022/01/03 06:46:56;;;;;;;11.02;5.28;;;;;;;21.69;nan;100120.38;20418504;28;98377;-63
2022/01/03 06:56:58;;;;;;;10.50;5.15;;;;;;;21.71;nan;100149.22;20415409;28;99883;-62
2022/01/03 07:06:58;;;;;;;9.90;5.07;;;;;;;21.82;nan;100158.88;20419144;28;99080;-62
2022/01/03 07:27:21;;;;;;;8.43;4.87;;;;;;;21.88;nan;100111.72;20407818;28;98233;-63
2022/01/03 07:37:23;;;;;;;9.30;4.88;;;;;;;21.88;nan;100110.91;20411351;28;101481;-62
2022/01/03 07:47:23;;;;;;;6.53;4.28;;;;;;;21.87;nan;100099.53;20412718;28;101347;-63
2022/01/03 07:57:25;;;;;;;8.90;4.50;;;;;;;21.89;nan;100108.13;20403177;28;101759;-63
2022/01/03 08:07:26;;;;;;;7.63;4.13;;;;;;;21.90;nan;100116.91;20408731;28;99420;-62
2022/01/03 08:17:26;;;;;;;5.78;3.83;;;;;;;21.88;nan;100121.44;20400737;28;100083;-63
2022/01/03 08:27:29;;;;;;;5.45;3.88;;;;;;;21.87;nan;100115.34;20410026;28;102024;-62
2022/01/03 08:37:33;;;;;;;;;;;;;;;21.90;nan;100117.72;20419610;28;100788;-63
2022/01/03 08:47:33;;;;;;;5.78;3.30;;;;;;;21.87;nan;100093.41;20424641;28;98193;-63
2022/01/03 08:57:34;;;;;;;6.63;3.55;;;;;;;21.88;nan;100139.91;20433489;28;99677;-63
2022/01/03 09:07:36;;;;;;;6.53;3.03;;;;;;;21.94;nan;100120.09;20399659;28;98524;-63
2022/01/03 09:17:37;;;;;;;4.70;3.00;;;;;;;21.99;nan;100152.19;20412076;28;100050;-62
2022/01/03 09:37:58;;;;;;;6.25;2.72;;;;;;;22.02;nan;100115.84;20406053;28;97385;-62
2022/01/03 09:48:01;;;;;;;3.72;2.80;;;;;;;22.03;nan;100106.97;20407547;28;100217;-62
2022/01/03 09:58:04;;;;;;;4.88;2.72;;;;;;;22.03;nan;100072.69;20403082;28;100395;-62
2022/01/03 10:08:05;;;;;;;5.78;3.33;;;;;;;22.02;nan;100078.94;20433807;28;101397;-62
2022/01/03 10:18:06;;;;;;;4.25;3.20;;;;;;;22.03;nan;100085.03;20425134;28;101499;-62
2022/01/03 10:28:06;;;;;;;5.15;3.53;;;;;;;22.03;nan;100087.66;20409108;28;102438;-61
2022/01/03 10:38:09;;;;;;;6.07;4.32;;;;;;;21.99;nan;100049.38;20401343;28;98519;-61
2022/01/03 10:48:29;;;;;;;7.23;4.03;;;;;;;22.02;nan;100035.91;20421269;28;100847;-61
2022/01/03 10:58:33;;;;;;;8.52;5.05;;;;;;;22.01;nan;100013.97;20426591;28;102328;-61
2022/01/03 11:19:01;;;;;;;11.07;6.32;;;;;;;22.04;nan;100000.53;20419105;28;98713;-60
2022/01/03 11:29:03;;;;;;;10.48;6.60;;;;;;;22.05;nan;99980.28;20402921;28;101643;-60
2022/01/03 11:39:10;;;;;;;11.45;7.88;;;;;;;22.04;nan;99994.44;20414861;28;100981;-60
2022/01/03 11:49:12;;;;;;;11.13;7.85;;;;;;;22.05;nan;99996.09;20391254;28;98710;-60
2022/01/03 12:09:29;;;;;;;15.82;10.88;;;;;;;22.07;nan;99987.09;20410380;28;97680;-60
2022/01/03 12:19:33;;;;;;;15.70;11.15;;;;;;;22.03;nan;99967.25;20435999;28;101393;-60
2022/01/03 12:29:56;;;;;;;16.80;11.35;;;;;;;22.03;nan;99967.25;20398117;28;99351;-60
2022/01/03 12:40:15;;;;;;;17.80;11.32;;;;;;;22.08;nan;99998.44;20411614;28;97780;-60
2022/01/03 12:50:35;;;;;;;40.60;18.10;;;;;;;22.13;nan;100017.38;20417265;28;98724;-60
2022/01/03 13:01:11;;;;;;;38.55;18.23;;;;;;;22.16;nan;100026.81;20395265;28;101841;-60
2022/01/03 13:11:14;;;;;;;31.42;16.65;;;;;;;22.17;nan;100046.94;20394475;28;100216;-60
2022/01/03 13:21:17;;;;;;;29.02;15.73;;;;;;;22.19;nan;100055.53;20398501;28;100414;-60
2022/01/03 13:31:19;;;;;;;29.48;15.25;;;;;;;22.19;nan;100066.94;20428007;28;102506;-60
2022/01/03 13:41:20;;;;;;;26.37;12.60;;;;;;;22.19;nan;100069.56;20412420;28;105034;-60
2022/01/03 13:51:21;;;;;;;29.85;13.20;;;;;;;22.22;nan;100077.19;20410011;28;101658;-60
2022/01/03 14:01:22;;;;;;;24.70;11.80;;;;;;;22.23;nan;100084.16;20410055;28;98775;-60
2022/01/03 14:11:26;;;;;;;17.17;10.80;;;;;;;22.24;nan;100092.91;20411065;28;101257;-60
2022/01/03 14:21:28;;;;;;;18.38;10.57;;;;;;;22.25;nan;100094.56;20401898;28;99394;-60
2022/01/03 14:31:53;;;;;;;17.53;10.17;;;;;;;22.24;nan;100103.47;20419255;28;98818;-60
2022/01/03 14:42:04;;;;;;;18.38;9.77;;;;;;;22.24;nan;100100.81;20416058;28;98639;-60
2022/01/03 14:52:07;;;;;;;16.63;9.20;;;;;;;22.21;nan;100111.63;20433134;28;97765;-61
2022/01/03 15:02:07;;;;;;;17.77;8.70;;;;;;;22.21;nan;100111.63;20409035;28;102842;-60
2022/01/03 15:12:09;;;;;;;14.55;8.38;;;;;;;22.18;nan;100122.41;20404951;28;101402;-60
2022/01/03 15:22:10;;;;;;;15.33;8.33;;;;;;;22.17;nan;100124.22;20430712;28;100352;-60
2022/01/03 15:32:13;;;;;;;16.00;7.80;;;;;;;22.18;nan;100123.28;20394155;28;97864;-60
2022/01/03 15:42:15;;;;;;;13.15;7.90;;;;;;;22.21;nan;100124.81;20420321;28;102568;-60
2022/01/03 15:52:16;;;;;;;11.45;7.10;;;;;;;22.18;nan;100125.06;20413052;28;102821;-61
2022/01/03 16:02:17;;;;;;;13.15;6.90;;;;;;;22.15;nan;100144.63;20405231;28;102650;-61
2022/01/03 16:12:19;;;;;;;9.43;6.28;;;;;;;22.20;nan;100128.41;20408920;28;102128;-61
2022/01/03 16:22:23;;;;;;;11.10;6.03;;;;;;;22.18;nan;100130.34;20410088;28;98057;-61
2022/01/03 16:32:25;;;;;;;10.70;6.00;;;;;;;22.17;nan;100145.34;20406369;28;98099;-61
2022/01/03 16:42:26;;;;;;;11.73;6.32;;;;;;;22.17;nan;100142.69;20398015;28;100178;-60
2022/01/03 16:52:27;;;;;;;232.20;41.75;;;;;;;22.27;nan;100153.28;20422438;28;99911;-59
2022/01/03 17:02:29;;;;;;;177.40;39.47;;;;;;;22.37;nan;100146.28;20413704;28;101023;-60
2022/01/03 17:12:29;;;;;;;164.23;36.17;;;;;;;22.45;nan;100156.19;20419462;28;102112;-60
2022/01/03 17:22:30;;;;;;;123.50;32.72;;;;;;;22.45;nan;100158.81;20418914;28;102954;-60
2022/01/03 17:32:32;;;;;;;107.28;32.30;;;;;;;22.30;nan;100157.47;20406911;28;101800;-60
2022/01/03 17:42:33;;;;;;;82.63;26.98;;;;;;;22.20;nan;100167.97;20401713;28;102913;-61
2022/01/03 17:52:34;;;;;;;79.57;25.45;;;;;;;22.46;nan;100157.00;20421421;28;102717;-60
2022/01/03 18:02:35;;;;;;;73.30;23.70;;;;;;;22.49;nan;100154.13;20421451;28;99504;-59
2022/01/03 18:12:36;;;;;;;67.80;22.58;;;;;;;22.53;nan;100137.03;20430892;28;98507;-60
2022/01/03 18:22:37;;;;;;;58.40;20.80;;;;;;;22.52;nan;100124.81;20404061;28;101596;-61
2022/01/03 18:32:39;;;;;;;56.75;18.25;;;;;;;22.53;nan;100129.13;20394374;28;99059;-61
2022/01/03 18:42:40;;;;;;;61.80;16.93;;;;;;;22.53;nan;100140.53;20406388;28;102458;-60
2022/01/03 18:52:41;;;;;;;48.42;16.48;;;;;;;22.52;nan;100141.50;20407065;28;99603;-60
2022/01/03 19:02:42;;;;;;;40.10;15.57;;;;;;;22.52;nan;100146.78;20427225;28;97983;-60
2022/01/03 19:12:46;;;;;;;35.17;13.25;;;;;;;22.49;nan;100162.03;20404279;28;97725;-61
2022/01/03 19:22:47;;;;;;;37.28;12.10;;;;;;;22.47;nan;100166.59;20408375;28;99227;-60
2022/01/03 19:32:59;;;;;;;31.45;11.20;;;;;;;22.38;nan;100155.88;20409608;28;99393;-61
2022/01/03 19:43:06;;;;;;;31.23;10.37;;;;;;;22.33;nan;100144.03;20417795;28;103211;-61
2022/01/03 19:53:08;;;;;;;23.60;8.63;;;;;;;22.34;nan;100149.16;20432467;28;99105;-60
2022/01/03 20:03:10;;;;;;;23.23;8.47;;;;;;;22.34;nan;100130.69;20405803;28;101210;-60
2022/01/03 20:13:10;;;;;;;17.97;7.23;;;;;;;22.34;nan;100130.69;20405404;28;99083;-61
2022/01/03 20:23:12;;;;;;;17.02;7.07;;;;;;;22.32;nan;100123.88;20396909;28;99440;-60
2022/01/03 20:33:12;;;;;;;17.45;6.88;;;;;;;22.29;nan;100140.81;20425765;28;98781;-61
2022/01/03 20:43:13;;;;;;;19.33;7.53;;;;;;;22.27;nan;100134.00;20412973;28;99080;-61
2022/01/03 20:53:13;;;;;;;17.70;6.70;;;;;;;22.27;nan;100118.19;20416214;28;98528;-61
2022/01/03 21:03:17;;;;;;;16.05;6.93;;;;;;;22.25;nan;100115.66;20406955;28;99392;-60
2022/01/03 21:13:17;;;;;;;15.90;6.60;;;;;;;22.22;nan;100111.47;20415465;28;99566;-60
2022/01/03 21:23:19;;;;;;;14.98;5.80;;;;;;;22.20;nan;100149.50;20434760;28;99514;-61
2022/01/03 21:33:21;;;;;;;13.53;5.70;;;;;;;22.18;nan;100172.53;20410258;28;101303;-60
2022/01/03 21:43:24;;;;;;;13.10;6.27;;;;;;;22.15;nan;100168.34;20406417;28;102331;-60
2022/01/03 21:53:30;;;;;;;10.70;5.43;;;;;;;22.12;nan;100129.06;20428807;28;100928;-59
2022/01/03 22:03:31;;;;;;;11.57;5.35;;;;;;;22.11;nan;100124.75;20424233;28;102613;-60
2022/01/03 22:13:31;;;;;;;12.30;5.50;;;;;;;22.10;nan;100102.00;20401389;28;98138;-60
2022/01/03 22:23:32;;;;;;;9.82;5.20;;;;;;;22.07;nan;100074.09;20425032;28;98112;-60
2022/01/03 22:33:32;;;;;;;10.80;5.00;;;;;;;22.04;nan;100061.16;20388787;28;99214;-61
2022/01/03 22:43:33;;;;;;;10.27;5.00;;;;;;;22.01;nan;100045.63;20382635;28;104698;-60
2022/01/03 22:53:35;;;;;;;8.95;4.50;;;;;;;21.97;nan;100023.13;20391187;28;102043;-60
2022/01/03 23:03:36;;;;;;;8.83;4.50;;;;;;;21.95;nan;100001.34;20391038;28;105659;-59
2022/01/03 23:13:38;;;;;;;11.18;4.80;;;;;;;21.91;nan;99969.13;20379863;28;101147;-60
2022/01/03 23:23:39;;;;;;;8.53;4.17;;;;;;;21.94;nan;99965.41;20385552;28;98529;-60
2022/01/03 23:33:40;;;;;;;7.25;4.05;;;;;;;21.94;nan;99954.84;20402594;28;102314;-61
2022/01/03 23:43:41;;;;;;;7.97;3.83;;;;;;;21.93;nan;99945.28;20380986;28;103710;-60
2022/01/03 23:53:42;;;;;;;8.50;3.75;;;;;;;21.91;nan;99926.97;20402179;28;97695;-60
